createdAt,value
2023-04-01T00:03:31.921Z,57.37
2023-04-01T00:07:35.397Z,57.50
2023-04-01T00:11:38.503Z,57.72
2023-04-01T00:15:43.448Z,58.04
2023-04-01T00:19:46.537Z,57.80
2023-04-01T00:23:49.543Z,58.46
2023-04-01T00:27:52.949Z,58.26
2023-04-01T00:31:57.987Z,58.20
2023-04-01T00:36:09.450Z,58.57
2023-04-01T00:40:25.379Z,58.63
2023-04-01T00:44:30.509Z,58.58
2023-04-01T00:48:38.389Z,58.57
2023-04-01T00:52:41.919Z,58.74
2023-04-01T00:56:49.761Z,58.46
2023-04-01T01:00:53.683Z,58.59
2023-04-01T01:04:58.196Z,58.80
2023-04-01T01:09:12.596Z,58.87
2023-04-01T01:13:21.294Z,59.38
2023-04-01T01:17:33.483Z,58.74
2023-04-01T01:22:01.873Z,58.94
2023-04-01T01:26:31.043Z,58.98
2023-04-01T01:30:45.154Z,59.11
2023-04-01T01:34:55.954Z,58.81
2023-04-01T01:39:01.324Z,58.93
2023-04-01T01:43:08.386Z,59.01
2023-04-01T01:47:12.444Z,58.72
2023-04-01T01:51:15.632Z,58.69
2023-04-01T01:55:30.318Z,58.93
2023-04-01T01:59:37.421Z,58.98
2023-04-01T02:03:42.513Z,58.71
2023-04-01T02:07:50.620Z,59.20
2023-04-01T02:11:59.865Z,59.21
2023-04-01T02:16:09.308Z,59.07
2023-04-01T02:20:17.995Z,59.14
2023-04-01T02:24:23.455Z,59.34
2023-04-01T02:28:29.355Z,59.05
2023-04-01T02:32:35.978Z,59.46
2023-04-01T02:36:40.236Z,59.50
2023-04-01T02:40:45.336Z,59.88
2023-04-01T02:44:49.975Z,60.40
2023-04-01T02:48:53.054Z,60.43
2023-04-01T02:52:57.172Z,60.09
2023-04-01T02:57:00.479Z,60.40
2023-04-01T03:01:05.182Z,60.29
2023-04-01T03:05:09.027Z,60.20
2023-04-01T03:09:12.468Z,60.58
2023-04-01T03:13:15.788Z,60.62
2023-04-01T03:17:21.475Z,61.64
2023-04-01T03:21:26.367Z,61.77
2023-04-01T03:25:31.802Z,61.95
2023-04-01T03:29:35.441Z,62.20
2023-04-01T03:33:40.398Z,61.84
2023-04-01T03:37:44.039Z,61.70
2023-04-01T03:41:47.607Z,61.96
2023-04-01T03:45:53.527Z,62.10
2023-04-01T03:49:58.168Z,61.74
2023-04-01T03:54:02.359Z,62.04
2023-04-01T03:58:05.790Z,61.83
2023-04-01T04:02:08.944Z,62.03
2023-04-01T04:06:15.164Z,61.93
2023-04-01T04:10:18.724Z,61.76
2023-04-01T04:14:21.798Z,61.76
2023-04-01T04:18:25.340Z,61.65
2023-04-01T04:22:29.772Z,62.08
2023-04-01T04:26:32.855Z,62.22
2023-04-01T04:30:37.206Z,62.20
2023-04-01T04:34:40.405Z,62.44
2023-04-01T04:38:45.161Z,62.03
2023-04-01T04:42:48.414Z,62.28
2023-04-01T04:46:53.158Z,62.04
2023-04-01T04:50:56.320Z,62.26
2023-04-01T04:55:02.000Z,62.04
2023-04-01T04:59:05.683Z,61.85
2023-04-01T05:03:18.542Z,62.02
2023-04-01T05:07:21.802Z,61.98
2023-04-01T05:11:27.014Z,61.85
2023-04-01T05:15:30.286Z,61.67
2023-04-01T05:19:33.556Z,62.03
2023-04-01T05:23:37.743Z,62.21
2023-04-01T05:27:42.288Z,62.15
2023-04-01T05:31:45.397Z,62.21
2023-04-01T05:35:48.441Z,61.96
2023-04-01T05:39:52.307Z,61.98
2023-04-01T05:43:57.221Z,62.16
2023-04-01T05:48:18.530Z,62.02
2023-04-01T05:52:21.670Z,62.09
2023-04-01T05:56:24.749Z,62.17
2023-04-01T06:00:29.935Z,62.04
2023-04-01T06:04:39.476Z,62.07
2023-04-01T06:08:42.549Z,62.35
2023-04-01T06:12:58.136Z,62.03
2023-04-01T06:17:19.961Z,62.12
2023-04-01T06:21:57.087Z,62.60
2023-04-01T06:26:16.768Z,62.13
2023-04-01T06:30:36.924Z,62.24
2023-04-01T06:34:58.405Z,62.13
2023-04-01T06:39:30.246Z,61.86
2023-04-01T06:43:44.397Z,61.78
2023-04-01T06:48:24.479Z,61.20
2023-04-01T06:52:52.520Z,61.23
2023-04-01T06:57:26.138Z,60.73
2023-04-01T07:01:38.605Z,60.65
2023-04-01T07:05:45.045Z,60.47
2023-04-01T07:09:53.728Z,60.56
2023-04-01T07:14:18.633Z,59.75
2023-04-01T07:18:30.716Z,59.53
2023-04-01T07:22:36.468Z,59.29
2023-04-01T07:26:56.792Z,59.51
2023-04-01T07:31:17.332Z,59.30
2023-04-01T07:35:29.992Z,58.79
2023-04-01T07:39:43.516Z,57.95
2023-04-01T07:44:17.018Z,57.71
2023-04-01T07:48:26.913Z,57.37
2023-04-01T07:52:40.605Z,57.75
2023-04-01T07:56:58.009Z,56.72
2023-04-01T08:01:27.192Z,56.92
2023-04-01T08:05:35.222Z,56.62
2023-04-01T08:09:48.613Z,55.86
2023-04-01T08:14:32.939Z,55.59
2023-04-01T08:19:02.051Z,54.49
2023-04-01T08:23:13.904Z,54.86
2023-04-01T08:27:24.546Z,54.40
2023-04-01T08:31:36.192Z,53.97
2023-04-01T08:35:47.982Z,54.62
2023-04-01T08:39:54.831Z,54.55
2023-04-01T08:44:29.194Z,54.09
2023-04-01T08:48:52.091Z,54.68
2023-04-01T08:53:05.826Z,54.08
2023-04-01T08:57:17.454Z,54.35
2023-04-01T09:02:00.788Z,54.42
2023-04-01T09:06:37.794Z,54.50
2023-04-01T09:10:58.215Z,53.81
2023-04-01T09:15:43.308Z,53.84
2023-04-01T09:20:01.901Z,53.32
2023-04-01T09:24:29.519Z,53.30
2023-04-01T09:28:44.049Z,53.77
2023-04-01T09:33:07.636Z,53.79
2023-04-01T09:37:22.695Z,53.28
2023-04-01T09:41:33.299Z,53.95
2023-04-01T09:46:15.294Z,54.21
2023-04-01T09:50:36.528Z,53.57
2023-04-01T09:55:05.233Z,53.55
2023-04-01T09:59:26.654Z,53.34
2023-04-01T10:04:35.480Z,53.49
2023-04-01T10:09:26.067Z,53.83
2023-04-01T10:14:04.634Z,53.22
2023-04-01T10:18:40.721Z,52.84
2023-04-01T10:23:43.205Z,53.31
2023-04-01T10:28:50.240Z,52.80
2023-04-01T10:33:44.157Z,51.86
2023-04-01T10:38:22.516Z,50.39
2023-04-01T10:43:19.585Z,48.52
2023-04-01T10:48:06.352Z,48.96
2023-04-01T10:52:38.554Z,48.96
2023-04-01T10:57:05.783Z,49.80
2023-04-01T11:02:11.272Z,50.26
2023-04-01T11:07:31.205Z,50.73
2023-04-01T11:12:14.126Z,50.95
2023-04-01T11:16:58.237Z,51.08
2023-04-01T11:21:45.018Z,51.30
2023-04-01T11:26:08.261Z,50.48
2023-04-01T11:31:01.493Z,50.63
2023-04-01T11:35:27.973Z,50.48
2023-04-01T11:39:39.815Z,50.49
2023-04-01T11:43:58.056Z,49.25
2023-04-01T11:48:45.868Z,49.03
2023-04-01T11:53:18.545Z,49.38
2023-04-01T11:57:42.425Z,49.04
2023-04-01T12:01:56.828Z,49.24
2023-04-01T12:06:07.434Z,49.19
2023-04-01T12:10:20.347Z,49.35
2023-04-01T12:14:33.356Z,48.27
2023-04-01T12:18:42.918Z,49.07
2023-04-01T12:22:51.806Z,50.57
2023-04-01T12:27:22.122Z,49.89
2023-04-01T12:31:34.906Z,49.13
2023-04-01T12:35:56.265Z,49.05
2023-04-01T12:40:20.441Z,46.44
2023-04-01T12:44:38.813Z,47.54
2023-04-01T12:49:02.163Z,47.01
2023-04-01T12:53:23.642Z,46.95
2023-04-01T12:57:47.663Z,46.83
2023-04-01T13:02:03.865Z,47.07
2023-04-01T13:06:24.735Z,48.34
2023-04-01T13:10:59.236Z,48.85
2023-04-01T13:15:20.472Z,49.06
2023-04-01T13:19:31.779Z,49.71
2023-04-01T13:23:45.902Z,49.36
2023-04-01T13:27:57.400Z,48.89
2023-04-01T13:32:40.857Z,48.51
2023-04-01T13:36:57.623Z,49.35
2023-04-01T13:41:08.011Z,49.78
2023-04-01T13:45:17.041Z,49.39
2023-04-01T13:49:50.539Z,48.07
2023-04-01T13:54:41.576Z,47.67
2023-04-01T13:59:05.745Z,47.19
2023-04-01T14:03:40.239Z,47.09
2023-04-01T14:07:58.861Z,46.26
2023-04-01T14:12:08.190Z,46.30
2023-04-01T14:16:33.516Z,45.53
2023-04-01T14:20:43.933Z,44.09
2023-04-01T14:25:14.110Z,44.93
2023-04-01T14:29:27.249Z,44.92
2023-04-01T14:33:42.596Z,44.88
2023-04-01T14:38:25.983Z,44.69
2023-04-01T14:42:57.732Z,44.90
2023-04-01T14:47:37.046Z,44.85
2023-04-01T14:51:41.511Z,44.60
2023-04-01T14:55:52.262Z,44.38
2023-04-01T15:00:03.595Z,42.98
2023-04-01T15:04:24.064Z,43.02
2023-04-01T15:08:31.380Z,43.57
2023-04-01T15:12:45.775Z,43.86
2023-04-01T15:17:02.674Z,43.72
2023-04-01T15:21:19.080Z,43.88
2023-04-01T15:25:35.995Z,43.90
2023-04-01T15:30:05.763Z,43.88
2023-04-01T15:34:28.426Z,44.09
2023-04-01T15:38:38.784Z,44.25
2023-04-01T15:42:57.801Z,44.35
2023-04-01T15:47:00.880Z,44.00
2023-04-01T15:51:30.483Z,44.14
2023-04-01T15:55:41.822Z,43.36
2023-04-01T16:00:23.325Z,44.44
2023-04-01T16:04:49.638Z,44.75
2023-04-01T16:09:12.503Z,45.33
2023-04-01T16:13:26.380Z,45.48
2023-04-01T16:17:46.489Z,46.02
2023-04-01T16:21:54.736Z,46.43
2023-04-01T16:26:08.626Z,46.40
2023-04-01T16:30:29.790Z,46.54
2023-04-01T16:34:38.212Z,46.70
2023-04-01T16:38:48.171Z,47.08
2023-04-01T16:42:55.122Z,47.19
2023-04-01T16:47:01.500Z,47.35
2023-04-01T16:51:13.573Z,47.89
2023-04-01T16:55:19.216Z,47.68
2023-04-01T16:59:28.968Z,48.12
2023-04-01T17:03:35.698Z,48.63
2023-04-01T17:07:48.768Z,49.10
2023-04-01T17:12:01.752Z,49.60
2023-04-01T17:16:19.833Z,49.54
2023-04-01T17:20:39.102Z,49.61
2023-04-01T17:24:57.780Z,50.12
2023-04-01T17:29:08.890Z,50.37
2023-04-01T17:33:48.762Z,51.05
2023-04-01T17:38:01.123Z,51.08
2023-04-01T17:42:09.837Z,51.41
2023-04-01T17:46:32.323Z,52.29
2023-04-01T17:50:57.724Z,52.80
2023-04-01T17:55:23.057Z,52.90
2023-04-01T17:59:37.944Z,53.42
2023-04-01T18:04:02.139Z,53.78
2023-04-01T18:08:14.873Z,54.65
2023-04-01T18:12:30.053Z,55.20
2023-04-01T18:16:54.436Z,55.49
2023-04-01T18:21:06.800Z,56.18
2023-04-01T18:25:23.581Z,56.06
2023-04-01T18:29:34.909Z,56.57
2023-04-01T18:33:48.713Z,56.49
2023-04-01T18:37:58.375Z,56.86
2023-04-01T18:42:11.162Z,56.77
2023-04-01T18:46:23.025Z,56.97
2023-04-01T18:50:32.442Z,57.19
2023-04-01T18:54:45.786Z,57.03
2023-04-01T18:58:55.906Z,57.36
2023-04-01T19:03:03.801Z,57.56
2023-04-01T19:07:42.017Z,57.64
2023-04-01T19:11:55.413Z,57.69
2023-04-01T19:16:11.516Z,58.06
2023-04-01T19:20:22.484Z,58.54
2023-04-01T19:24:47.617Z,58.71
2023-04-01T19:28:57.692Z,59.59
2023-04-01T19:33:16.144Z,59.33
2023-04-01T19:37:31.759Z,59.87
2023-04-01T19:41:41.721Z,59.63
2023-04-01T19:45:50.065Z,60.13
2023-04-01T19:50:04.641Z,59.87
2023-04-01T19:54:21.542Z,60.70
2023-04-01T19:58:31.121Z,61.20
2023-04-01T20:02:46.160Z,61.42
2023-04-01T20:06:57.891Z,61.75
2023-04-01T20:11:14.540Z,62.07
2023-04-01T20:15:30.942Z,61.75
2023-04-01T20:19:41.146Z,62.24
2023-04-01T20:23:49.755Z,62.30
2023-04-01T20:27:58.096Z,63.02
2023-04-01T20:32:11.166Z,63.06
2023-04-01T20:36:23.299Z,62.77
2023-04-01T20:40:34.363Z,62.96
2023-04-01T20:44:44.856Z,63.03
2023-04-01T20:49:13.192Z,63.71
2023-04-01T20:53:22.290Z,63.33
2023-04-01T20:57:34.158Z,63.51
2023-04-01T21:01:45.425Z,64.01
2023-04-01T21:06:17.128Z,63.92
2023-04-01T21:10:31.881Z,63.86
2023-04-01T21:14:59.370Z,63.54
2023-04-01T21:19:21.661Z,64.15
2023-04-01T21:23:59.215Z,63.96
2023-04-01T21:28:20.848Z,64.40
2023-04-01T21:32:36.629Z,64.54
2023-04-01T21:37:01.364Z,64.14
2023-04-01T21:41:42.499Z,63.93
2023-04-01T21:46:11.277Z,64.00
2023-04-01T21:51:03.812Z,64.07
2023-04-01T21:55:46.032Z,64.76
2023-04-01T22:00:16.856Z,64.22
2023-04-01T22:04:34.606Z,64.53
2023-04-01T22:08:50.030Z,64.76
2023-04-01T22:13:01.640Z,64.78
2023-04-01T22:17:14.691Z,65.16
2023-04-01T22:21:25.692Z,64.95
2023-04-01T22:25:35.836Z,65.17
2023-04-01T22:29:44.553Z,65.13
2023-04-01T22:33:56.151Z,65.11
2023-04-01T22:38:10.159Z,65.51
2023-04-01T22:42:32.186Z,65.48
2023-04-01T22:46:56.104Z,65.37
2023-04-01T22:51:07.377Z,65.27
2023-04-01T22:55:16.127Z,65.57
2023-04-01T22:59:26.174Z,65.19
2023-04-01T23:03:32.114Z,65.65
2023-04-01T23:07:50.059Z,65.68
2023-04-01T23:11:57.306Z,65.71
2023-04-01T23:16:02.670Z,65.43
2023-04-01T23:20:19.056Z,65.65
2023-04-01T23:24:28.386Z,65.83
2023-04-01T23:28:51.109Z,65.65
2023-04-01T23:32:55.687Z,65.17
2023-04-01T23:37:03.044Z,65.42
2023-04-01T23:41:07.748Z,65.39
2023-04-01T23:45:18.711Z,65.26
2023-04-01T23:49:26.795Z,65.21
2023-04-01T23:53:32.516Z,65.10
2023-04-01T23:57:37.829Z,64.88
